地図

経路データ

SID SEASON NUMBER BASIN SUBBASIN NAME ISO_TIME NATURE LAT LON WMO_WIND WMO_PRES WMO_AGENCY TRACK_TYPE DIST2LAND LANDFALL IFLAG USA_AGENCY USA_ATCF_ID USA_LAT USA_LON USA_RECORD USA_STATUS USA_WIND USA_PRES USA_SSHS USA_R34_NE USA_R34_SE USA_R34_SW USA_R34_NW USA_R50_NE USA_R50_SE USA_R50_SW USA_R50_NW USA_R64_NE USA_R64_SE USA_R64_SW USA_R64_NW USA_POCI USA_ROCI USA_RMW USA_EYE TOKYO_LAT TOKYO_LON TOKYO_GRADE TOKYO_WIND TOKYO_PRES TOKYO_R50_DIR TOKYO_R50_LONG TOKYO_R50_SHORT TOKYO_R30_DIR TOKYO_R30_LONG TOKYO_R30_SHORT TOKYO_LAND CMA_LAT CMA_LON CMA_CAT CMA_WIND CMA_PRES HKO_LAT HKO_LON HKO_CAT HKO_WIND HKO_PRES NEWDELHI_LAT NEWDELHI_LON NEWDELHI_GRADE NEWDELHI_WIND NEWDELHI_PRES NEWDELHI_CI NEWDELHI_DP NEWDELHI_POCI REUNION_LAT REUNION_LON REUNION_TYPE REUNION_WIND REUNION_PRES REUNION_TNUM REUNION_CI REUNION_RMW REUNION_R34_NE REUNION_R34_SE REUNION_R34_SW REUNION_R34_NW REUNION_R50_NE REUNION_R50_SE REUNION_R50_SW REUNION_R50_NW REUNION_R64_NE REUNION_R64_SE REUNION_R64_SW REUNION_R64_NW BOM_LAT BOM_LON BOM_TYPE BOM_WIND BOM_PRES BOM_TNUM BOM_CI BOM_RMW BOM_R34_NE BOM_R34_SE BOM_R34_SW BOM_R34_NW BOM_R50_NE BOM_R50_SE BOM_R50_SW BOM_R50_NW BOM_R64_NE BOM_R64_SE BOM_R64_SW BOM_R64_NW BOM_ROCI BOM_POCI BOM_EYE BOM_POS_METHOD BOM_PRES_METHOD NADI_LAT NADI_LON NADI_CAT NADI_WIND NADI_PRES WELLINGTON_LAT WELLINGTON_LON WELLINGTON_WIND WELLINGTON_PRES DS824_LAT DS824_LON DS824_STAGE DS824_WIND DS824_PRES TD9636_LAT TD9636_LON TD9636_STAGE TD9636_WIND TD9636_PRES TD9635_LAT TD9635_LON TD9635_WIND TD9635_PRES TD9635_ROCI NEUMANN_LAT NEUMANN_LON NEUMANN_CLASS NEUMANN_WIND NEUMANN_PRES MLC_LAT MLC_LON MLC_CLASS MLC_WIND MLC_PRES USA_GUST BOM_GUST BOM_GUST_PER REUNION_GUST REUNION_GUST_PER USA_SEAHGT USA_SEARAD_NE USA_SEARAD_SE USA_SEARAD_SW USA_SEARAD_NW STORM_SPEED STORM_DIR
1946153N11071 1946 30 NI AS NOT_NAMED 1946-06-01 18:00:00 TS 10.9000 71.3000 main 435 435 O________O____ jtwc_io IO011946 10.9000 71.3000 -1 10.9000 71.3000 TC 1 340
1946153N11071 1946 30 NI AS NOT_NAMED 1946-06-01 21:00:00 TS 10.9525 71.2750 main 431 431 P________P____ IO011946 10.9525 71.2750 -1 10.9525 71.2750 TC 2 333
1946153N11071 1946 30 NI AS NOT_NAMED 1946-06-02 00:00:00 TS 11.1000 71.2000 main 435 430 O________O____ jtwc_io IO011946 11.1000 71.2000 -1 11.1000 71.2000 TC 25 5 332
1946153N11071 1946 30 NI AS NOT_NAMED 1946-06-02 03:00:00 TS 11.4044 71.0333 main 442 438 P________PO___ IO011946 11.4050 71.0375 -1 11.4050 71.0375 TC 25 11.4000 71.0000 1 8 330
1946153N11071 1946 30 NI AS NOT_NAMED 1946-06-02 06:00:00 TS 11.7969 70.7876 main 449 449 O________OP___ jtwc_io IO011946 11.8000 70.8000 -1 11.8000 70.8000 TC 25 11.7845 70.7378 1 9 326
1946153N11071 1946 30 NI AS NOT_NAMED 1946-06-02 09:00:00 TS 12.1878 70.5028 main 471 469 P________PP___ IO011946 12.1925 70.5150 -1 12.1925 70.5150 TC 30 12.1752 70.4702 1 10 324
1946153N11071 1946 30 NI AS NOT_NAMED 1946-06-02 12:00:00 TS 12.5927 70.1975 main 487 484 O________OP___ jtwc_io IO011946 12.6000 70.2000 -1 12.6000 70.2000 TC 35 12.5782 70.1926 1 10 324
1946153N11071 1946 30 NI AS NOT_NAMED 1946-06-02 15:00:00 TS 12.9950 69.9049 main 491 486 P________PO___ IO011946 12.9924 69.9073 -1 12.9924 69.9073 TC 35 13.0000 69.9000 2 10 325
1946153N11071 1946 30 NI AS NOT_NAMED 1946-06-02 18:00:00 TS 13.4140 69.5965 main 501 496 O________OP___ jtwc_io IO011946 13.4000 69.6000 -1 13.4000 69.6000 TC 35 13.4421 69.5895 2 11 324
1946153N11071 1946 30 NI AS NOT_NAMED 1946-06-02 21:00:00 TS 13.8675 69.2551 main 510 510 P________PP___ IO011946 13.8575 69.2500 -1 13.8575 69.2500 TC 35 13.8874 69.2652 2 11 323
1946153N11071 1946 30 NI AS NOT_NAMED 1946-06-03 00:00:00 TS 14.3047 68.9111 main 532 527 O________OP___ jtwc_io IO011946 14.3000 68.9000 -1 14.3000 68.9000 TC 35 14.3140 68.9332 2 10 322
1946153N11071 1946 30 NI AS NOT_NAMED 1946-06-03 03:00:00 TS 14.6866 68.5999 main 542 542 P________PO___ IO011946 14.6799 68.5998 -1 14.6799 68.5998 TC 35 14.7000 68.6000 3 9 319
1946153N11071 1946 30 NI AS NOT_NAMED 1946-06-03 06:00:00 TS 15.0046 68.2915 main 560 560 O________OP___ jtwc_io IO011946 15.0000 68.3000 -1 15.0000 68.3000 TC 35 15.0139 68.2744 3 9 313
1946153N11071 1946 30 NI AS NOT_NAMED 1946-06-03 09:00:00 TS 15.2674 67.9497 main 593 593 P________PP___ IO011946 15.2575 67.9499 -1 15.2575 67.9499 TC 35 15.2873 67.9492 3 8 308
1946153N11071 1946 30 NI AS NOT_NAMED 1946-06-03 12:00:00 TS 15.5140 67.6081 main 619 617 O________OP___ jtwc_io IO011946 15.5000 67.6000 -1 15.5000 67.6000 TC 35 15.5420 67.6244 3 8 310
1946153N11071 1946 30 NI AS NOT_NAMED 1946-06-03 15:00:00 TS 15.7949 67.2999 main 645 645 P________PO___ IO011946 15.7924 67.2999 -1 15.7924 67.2999 TC 35 15.8000 67.3000 3 8 315
1946153N11071 1946 30 NI AS NOT_NAMED 1946-06-03 18:00:00 TS 16.1001 67.0010 main 651 642 O________OP___ jtwc_io IO011946 16.1000 67.0000 -1 16.1000 67.0000 TC 35 16.1004 67.0030 3 9 315
1946153N11071 1946 30 NI AS NOT_NAMED 1946-06-03 21:00:00 TS 16.4022 66.6722 main 642 634 P________PP___ IO011946 16.4000 66.6574 -1 16.4000 66.6574 TC 50 16.4067 66.7018 3 9 313
1946153N11071 1946 30 NI AS NOT_NAMED 1946-06-04 00:00:00 TS 16.7032 66.3249 main 640 630 O________OP___ jtwc_io IO011946 16.7000 66.3000 -1 16.7000 66.3000 TC 65 16.7097 66.3748 3 9 313
1946153N11071 1946 30 NI AS NOT_NAMED 1946-06-04 03:00:00 TS 17.0048 65.9865 main 636 635 P________PO___ IO011946 17.0073 65.9798 -1 17.0073 65.9798 TC 50 17.0000 66.0000 4 9 310
1946153N11071 1946 30 NI AS NOT_NAMED 1946-06-04 06:00:00 TS 17.2923 65.5821 main 642 642 O________OP___ jtwc_io IO011946 17.3000 65.6000 -1 17.3000 65.6000 TC 35 17.2768 65.5463 4 10 302
1946153N11071 1946 30 NI AS NOT_NAMED 1946-06-04 09:00:00 TS 17.5560 65.0634 main 657 657 P________PP___ IO011946 17.5651 65.0725 -1 17.5651 65.0725 TC 35 17.5378 65.0451 4 11 296
1946153N11071 1946 30 NI AS NOT_NAMED 1946-06-04 12:00:00 TS 17.7933 64.5071 main 677 621 O________OP___ jtwc_io IO011946 17.8000 64.5000 -1 17.8000 64.5000 TC 35 17.7798 64.5213 4 11 294
1946153N11071 1946 30 NI AS NOT_NAMED 1946-06-04 15:00:00 TS 18.0048 63.9998 main 621 566 P________PO___ IO011946 18.0073 63.9998 -1 18.0073 63.9998 TC 35 18.0000 64.0000 3 11 293
1946153N11071 1946 30 NI AS NOT_NAMED 1946-06-04 18:00:00 TS 18.2030 63.4924 main 566 512 O________OP___ jtwc_io IO011946 18.2000 63.5000 -1 18.2000 63.5000 TC 35 18.2089 63.4771 3 11 292
1946153N11071 1946 30 NI AS NOT_NAMED 1946-06-04 21:00:00 TS 18.4086 62.9309 main 504 458 P________PP___ IO011946 18.4152 62.9127 -1 18.4152 62.9127 TC 30 18.3953 62.9675 3 11 291
1946153N11071 1946 30 NI AS NOT_NAMED 1946-06-05 00:00:00 TS 18.5863 62.4330 main 450 420 O________OP___ jtwc_io IO011946 18.6000 62.4000 -1 18.6000 62.4000 TC 25 18.5590 62.4991 3 8 291
1946153N11071 1946 30 NI AS NOT_NAMED 1946-06-05 03:00:00 TS 18.7098 62.1032 main 420 396 P________PO___ IO011946 18.7147 62.1048 -1 18.7147 62.1048 TC 25 18.7000 62.1000 1 6 293
1946153N11071 1946 30 NI AS NOT_NAMED 1946-06-05 06:00:00 TS 18.8083 61.8675 main 396 364 O________OP___ jtwc_io IO011946 18.8000 61.9000 -1 18.8000 61.9000 TC 25 18.8249 61.8026 1 5 294
1946153N11071 1946 30 NI AS NOT_NAMED 1946-06-05 09:00:00 TS 18.9097 61.6198 main 364 340 P________PP___ IO011946 18.9000 61.6425 -1 18.9000 61.6425 TC 25 18.9291 61.5744 1 5 294
1946153N11071 1946 30 NI AS NOT_NAMED 1946-06-05 12:00:00 TS 19.0063 61.3947 main 340 316 O________OP___ jtwc_io IO011946 19.0000 61.4000 -1 19.0000 61.4000 TC 25 19.0188 61.3840 1 4 296
1946153N11071 1946 30 NI AS NOT_NAMED 1946-06-05 15:00:00 TS 19.1050 61.2000 main 316 293 P________PO___ IO011946 19.1074 61.2000 -1 19.1074 61.2000 TC 25 19.1000 61.2000 1 4 296
1946153N11071 1946 30 NI AS NOT_NAMED 1946-06-05 18:00:00 TS 19.1910 60.9989 main 293 269 O________OP___ jtwc_io IO011946 19.2000 61.0000 -1 19.2000 61.0000 TC 25 19.1776 60.9971 1 4 290
1946153N11071 1946 30 NI AS NOT_NAMED 1946-06-05 21:00:00 TS 19.2571 60.7680 main 269 242 P________PP___ IO011946 19.2601 60.7625 -1 19.2601 60.7625 TC 25 19.2531 60.7754 1 5 285
1946153N11071 1946 30 NI AS NOT_NAMED 1946-06-06 00:00:00 TS 19.3135 60.5205 main 242 218 O________OP___ jtwc_io IO011946 19.3000 60.5000 -1 19.3000 60.5000 TC 25 19.3270 60.5409 1 5 288
1946153N11071 1946 30 NI AS NOT_NAMED 1946-06-06 03:00:00 NR 19.4000 60.3000 main 218 __________O___ IO011946 -1 TC 19.4000 60.3000 1 5 292

IBTrACS Databaseについて

本データベースは、米国NOAAが公開する1842年以降の世界の熱帯低気圧のベストトラックデータアーカイブInternational Best Track Archive for Climate Stewardship (IBTrACS)を、ウェブで閲覧しやすい形式に変換したものです。

最終更新日:2021-10-21